Muir Army Air Field (Fort Indiantown Gap) Airport Fort Indiantown Gap(Annville) US
ICAO: KMUI
IATA: MUI
Category: Medium
Scheduled Services: No

Elevation: 488 ft
TransAlt. 18000 ft.

Airport Communications:
HARRISBURG APP/DEP:118.25
CTAF:126.2
GND:121.625
FLT FLW:40.9
ARNG OPS:49.95
TWR:126.2

KMUI Zoom In..

If you have problems with the map follow the link
https://www.worldairports.se/pages/airport.php?
ICAO=KMUI

Runways:

(A) RW 07 length 3978 ft width 98 ft
---- / hdg 70

(B) RW 25 length 3978 ft width 98 ft
---- / hdg 250

Location; KMUI
Day. 16 / Time. 10.56 Zulu
* Altimeter: 29.67
* Temperature: 01° c. 33.8°f.
* Wind from: 340° Speed 15 kn with Gusts up to 24 kn.
Dewpoint: -02° c.
Visibility: 10 Statute Miles.
Clouds: Broken 6000 ft.
Clouds: Overcast 12000 ft.

KMUI 161056Z AUTO 34015G24KT 10SM BKN060 OVC120 01/M02 A2967 RMK AO2 RAE19 SLP054 P0000 T00131016 $


Wind From 340°
Speed 15 kn.

 
 
jpsmedia.com for Web Design worldairports.se 2018   terms of use